Time;durP1;ratioP1;P1;durP2;ratioP2;P2;SDS_P1;SDS_P2;PMS_P1;PMS_P2;Temp;Humidity;BMP_temperature;BMP_pressure;BME280_temperature;BME280_humidity;BME280_pressure;Samples;Min_cycle;Max_cycle;Signal;HPM_P1;HPM_P2
2021/07/31 00:01:06;;;;;;;5.00;1.83;;;;;;;21.82;54.91;99846.00;5033195;28;20395;-81
2021/07/31 00:03:32;;;;;;;1.70;1.60;;;;;;;21.82;54.98;99847.94;5014022;28;20431;-81
2021/07/31 00:05:57;;;;;;;5.07;1.57;;;;;;;21.80;54.80;99855.75;5014272;28;20416;-81
2021/07/31 00:08:22;;;;;;;4.20;1.40;;;;;;;21.79;54.89;99854.94;5016663;28;20493;-81
2021/07/31 00:10:48;;;;;;;4.93;1.40;;;;;;;21.77;55.04;99851.69;5033441;28;20506;-81
2021/07/31 00:13:13;;;;;;;1.57;1.57;;;;;;;21.78;55.14;99849.75;5033334;28;20402;-81
2021/07/31 00:15:38;;;;;;;2.50;1.87;;;;;;;21.72;55.11;99843.63;5033842;28;20406;-81
2021/07/31 00:18:04;;;;;;;4.93;3.30;;;;;;;21.61;55.48;99843.19;5033157;28;20418;-81
2021/07/31 00:20:29;;;;;;;8.20;4.07;;;;;;;21.60;55.49;99844.31;5031771;28;20488;-81
2021/07/31 00:22:54;;;;;;;4.57;1.90;;;;;;;21.62;55.56;99846.75;5019282;28;20435;-82
2021/07/31 00:25:20;;;;;;;3.70;2.50;;;;;;;21.64;55.55;99833.44;5033339;28;20408;-81
2021/07/31 00:27:45;;;;;;;2.73;2.30;;;;;;;21.57;55.51;99836.72;5032971;28;20399;-82
2021/07/31 00:30:10;;;;;;;5.80;1.90;;;;;;;21.56;55.58;99839.81;5033509;28;20391;-81
2021/07/31 00:32:35;;;;;;;2.20;1.87;;;;;;;21.53;55.70;99837.72;5033063;28;20410;-81
2021/07/31 00:35:01;;;;;;;3.27;1.33;;;;;;;21.46;55.42;99841.00;5033402;28;20423;-82
2021/07/31 00:37:26;;;;;;;5.33;2.10;;;;;;;21.44;55.30;99846.03;5032904;28;20442;-81
2021/07/31 00:39:52;;;;;;;4.40;1.65;;;;;;;21.44;55.10;99839.72;5031767;28;20407;-81
2021/07/31 00:42:17;;;;;;;2.57;1.43;;;;;;;21.44;54.90;99834.22;5032114;28;20473;-81
2021/07/31 00:44:42;;;;;;;5.80;1.37;;;;;;;21.44;54.55;99843.28;5032508;28;20896;-81
2021/07/31 00:47:08;;;;;;;4.97;1.67;;;;;;;21.40;54.45;99842.34;5032790;28;20444;-81
2021/07/31 00:49:34;;;;;;;2.33;1.43;;;;;;;21.36;53.79;99841.38;5033539;28;20422;-81
2021/07/31 00:52:01;;;;;;;3.13;1.85;;;;;;;21.41;53.84;99841.19;5032526;28;20407;-81
2021/07/31 00:54:27;;;;;;;2.45;1.60;;;;;;;21.44;53.73;99836.97;5032892;28;20415;-81
2021/07/31 00:56:52;;;;;;;3.97;1.17;;;;;;;21.45;53.24;99852.34;5032662;28;20486;-81
2021/07/31 00:59:18;;;;;;;6.00;2.40;;;;;;;21.40;53.10;99852.56;5032943;28;20395;-81
2021/07/31 01:01:43;;;;;;;1.70;1.33;;;;;;;21.36;52.96;99849.66;5032231;28;20421;-81
2021/07/31 01:04:09;;;;;;;5.65;1.40;;;;;;;21.34;52.26;99849.16;5032727;28;20406;-81
2021/07/31 01:06:35;;;;;;;3.97;1.60;;;;;;;21.35;52.21;99859.03;5015848;28;20410;-81
2021/07/31 01:09:01;;;;;;;2.20;1.20;;;;;;;21.34;51.74;99859.38;5031128;28;20399;-81
2021/07/31 01:11:26;;;;;;;5.53;1.08;;;;;;;21.29;50.73;99856.81;5032268;28;20414;-81
2021/07/31 01:13:52;;;;;;;2.37;1.20;;;;;;;21.19;51.22;99856.03;5032298;28;20395;-81
2021/07/31 01:16:17;;;;;;;2.33;1.52;;;;;;;21.19;51.05;99874.50;5031155;28;20891;-81
2021/07/31 01:18:43;;;;;;;3.37;0.90;;;;;;;21.21;51.15;99862.00;5032225;28;21156;-81
2021/07/31 01:21:08;;;;;;;3.80;1.13;;;;;;;21.13;51.10;99865.63;5030646;28;20414;-81
2021/07/31 01:23:34;;;;;;;3.40;1.17;;;;;;;21.06;51.40;99864.47;5030988;28;20399;-81
2021/07/31 01:25:59;;;;;;;4.47;1.07;;;;;;;21.09;51.17;99863.81;5034076;28;20481;-81
2021/07/31 01:28:25;;;;;;;2.20;1.33;;;;;;;21.07;50.23;99869.66;5032074;28;20403;-81
2021/07/31 01:30:50;;;;;;;2.67;1.50;;;;;;;21.09;50.57;99872.91;5032172;28;20745;-81
2021/07/31 01:33:16;;;;;;;4.10;1.05;;;;;;;21.02;50.70;99880.03;5032053;28;20399;-81
2021/07/31 01:35:41;;;;;;;2.67;1.10;;;;;;;21.02;50.80;99880.03;5031986;28;20438;-81
2021/07/31 01:38:07;;;;;;;2.90;1.10;;;;;;;20.95;51.31;99885.22;5031966;28;20426;-81
2021/07/31 01:40:32;;;;;;;2.65;1.10;;;;;;;20.91;51.56;99884.28;5032179;28;20450;-81
2021/07/31 01:42:57;;;;;;;2.10;1.20;;;;;;;20.87;51.85;99886.88;5032195;28;20395;-81
2021/07/31 01:45:24;;;;;;;8.23;1.90;;;;;;;20.90;51.99;99888.16;5031600;28;20415;-81
2021/07/31 01:47:49;;;;;;;5.20;1.13;;;;;;;20.89;52.22;99889.28;5031166;28;20414;-81
2021/07/31 01:50:14;;;;;;;4.17;1.03;;;;;;;20.82;52.29;99884.28;5032192;28;20427;-81
2021/07/31 01:52:40;;;;;;;2.10;1.13;;;;;;;20.80;52.40;99885.75;5027439;28;20419;-81
2021/07/31 01:55:05;;;;;;;1.70;1.23;;;;;;;20.72;52.64;99890.13;5027759;28;20554;-81
2021/07/31 01:57:31;;;;;;;2.72;1.42;;;;;;;20.67;52.91;99891.13;5031491;28;20415;-82
2021/07/31 01:59:56;;;;;;;4.20;1.23;;;;;;;20.70;53.05;99887.72;5031493;28;20399;-81
2021/07/31 02:02:21;;;;;;;6.73;1.57;;;;;;;20.70;52.73;99878.63;5031313;28;20932;-81
2021/07/31 02:04:46;;;;;;;4.40;1.73;;;;;;;20.66;52.69;99881.22;5047200;28;20399;-81
2021/07/31 02:07:12;;;;;;;3.40;1.27;;;;;;;20.63;52.75;99881.88;5030263;28;20411;-82
2021/07/31 02:09:37;;;;;;;3.70;1.20;;;;;;;20.53;52.65;99875.91;5046873;28;20506;-81
2021/07/31 02:12:03;;;;;;;2.67;1.20;;;;;;;20.45;52.83;99885.75;5031251;28;20767;-81
2021/07/31 02:14:29;;;;;;;5.82;1.20;;;;;;;20.39;52.92;99876.06;5032034;28;20410;-81
2021/07/31 02:16:54;;;;;;;4.00;1.40;;;;;;;20.41;53.07;99884.00;5031036;28;20465;-81
2021/07/31 02:19:20;;;;;;;10.73;1.50;;;;;;;20.31;52.75;99876.88;5030866;28;20392;-81
2021/07/31 02:21:45;;;;;;;3.33;1.30;;;;;;;20.25;53.03;99886.41;5029822;28;20507;-81
2021/07/31 02:24:11;;;;;;;2.70;1.00;;;;;;;20.27;52.84;99883.34;5031243;28;20485;-82
2021/07/31 02:26:36;;;;;;;3.33;1.17;;;;;;;20.26;52.61;99882.50;5026204;28;20457;-81
2021/07/31 02:29:02;;;;;;;9.30;1.97;;;;;;;20.24;52.90;99881.22;5030486;28;20410;-81
2021/07/31 02:31:28;;;;;;;2.87;1.03;;;;;;;20.30;52.74;99878.00;5031066;28;20443;-81
2021/07/31 02:33:53;;;;;;;3.30;1.23;;;;;;;20.33;52.49;99880.09;5030879;28;20419;-81
2021/07/31 02:36:18;;;;;;;1.60;0.93;;;;;;;20.33;52.66;99882.03;5031041;28;20399;-81
2021/07/31 02:38:43;;;;;;;1.53;1.00;;;;;;;20.25;52.59;99882.84;5031137;28;20409;-82
2021/07/31 02:41:09;;;;;;;2.10;1.00;;;;;;;20.22;52.63;99883.47;5030980;28;20407;-81
2021/07/31 02:43:34;;;;;;;2.70;1.08;;;;;;;20.20;52.66;99875.53;5030701;28;20390;-81
2021/07/31 02:46:08;;;;;;;3.47;0.97;;;;;;;20.16;52.58;99878.13;5031125;28;20399;-81
2021/07/31 02:48:35;;;;;;;4.00;1.50;;;;;;;20.14;52.25;99866.63;5033988;28;20401;-81
2021/07/31 02:51:06;;;;;;;2.45;0.98;;;;;;;20.07;52.15;99868.25;5016133;28;20821;-82
2021/07/31 02:53:31;;;;;;;4.15;1.20;;;;;;;20.02;51.84;99874.69;5029764;28;20444;-81
2021/07/31 02:55:56;;;;;;;1.17;0.80;;;;;;;20.10;51.52;99862.91;5030446;28;20411;-81
2021/07/31 02:58:22;;;;;;;5.60;0.83;;;;;;;20.09;51.25;99860.47;5030699;28;20407;-81
2021/07/31 03:00:47;;;;;;;3.67;1.00;;;;;;;20.08;51.25;99859.69;5030628;28;20464;-81
2021/07/31 03:03:12;;;;;;;6.10;1.13;;;;;;;20.03;51.25;99865.31;5031259;28;20391;-81
2021/07/31 03:05:38;;;;;;;4.70;1.40;;;;;;;19.99;51.45;99858.06;5031513;28;20905;-81
2021/07/31 03:08:03;;;;;;;2.70;0.83;;;;;;;20.02;51.15;99857.41;5032699;28;20473;-81
2021/07/31 03:10:29;;;;;;;4.77;1.47;;;;;;;20.02;51.23;99860.16;5034040;28;20894;-81
2021/07/31 03:12:54;;;;;;;2.65;0.77;;;;;;;20.07;51.25;99862.75;5034841;28;20866;-81
2021/07/31 03:15:19;;;;;;;3.63;1.40;;;;;;;20.04;51.37;99866.94;5034490;28;20854;-81
2021/07/31 03:17:44;;;;;;;5.67;1.50;;;;;;;20.03;51.52;99859.81;5035046;28;20398;-82
2021/07/31 03:20:10;;;;;;;4.50;1.67;;;;;;;20.04;51.54;99863.38;5034428;28;20490;-81
2021/07/31 03:22:35;;;;;;;4.63;1.70;;;;;;;20.04;51.34;99866.13;5034184;28;20415;-81
2021/07/31 03:25:01;;;;;;;2.17;0.90;;;;;;;20.07;51.10;99860.81;5034059;28;20409;-81
2021/07/31 03:27:27;;;;;;;3.22;1.20;;;;;;;20.06;51.41;99861.94;5034094;28;20414;-81
2021/07/31 03:29:52;;;;;;;3.40;1.20;;;;;;;20.00;51.50;99860.47;5034102;28;20379;-81
2021/07/31 03:32:17;;;;;;;3.33;0.93;;;;;;;19.93;51.66;99864.81;5034716;28;20913;-81
2021/07/31 03:34:43;;;;;;;1.70;1.10;;;;;;;19.89;51.73;99870.16;5034187;28;20407;-81
2021/07/31 03:37:08;;;;;;;2.53;1.10;;;;;;;19.89;52.08;99863.88;5034378;28;20387;-81
2021/07/31 03:39:34;;;;;;;4.82;1.17;;;;;;;19.89;51.91;99863.88;5039607;28;21022;-81
2021/07/31 03:41:59;;;;;;;2.30;1.00;;;;;;;19.86;52.14;99864.47;5033319;28;20419;-81
2021/07/31 03:44:24;;;;;;;1.20;1.07;;;;;;;19.92;52.02;99864.00;5023720;28;20403;-81
2021/07/31 03:46:51;;;;;;;11.87;3.33;;;;;;;19.90;52.10;99869.03;5034179;28;20482;-81
2021/07/31 03:49:17;;;;;;;6.57;3.13;;;;;;;19.88;52.08;99875.97;5033076;28;20399;-82
2021/07/31 03:51:42;;;;;;;6.60;1.90;;;;;;;19.82;52.20;99877.25;5032197;28;20932;-81
2021/07/31 03:54:08;;;;;;;8.37;2.50;;;;;;;19.73;52.54;99876.41;5033956;28;20429;-81
2021/07/31 03:56:33;;;;;;;3.30;1.93;;;;;;;19.69;52.58;99879.78;5033789;28;20517;-81
2021/07/31 03:58:59;;;;;;;7.45;2.05;;;;;;;19.65;52.70;99878.84;5033806;28;20750;-81
2021/07/31 04:01:25;;;;;;;4.00;1.40;;;;;;;19.68;52.50;99877.38;5033879;28;20415;-81
2021/07/31 04:03:51;;;;;;;3.37;1.03;;;;;;;19.58;52.61;99878.50;5032893;28;20427;-81
2021/07/31 04:06:17;;;;;;;4.10;0.90;;;;;;;19.52;52.91;99877.03;5033224;28;20426;-81
2021/07/31 04:08:42;;;;;;;4.60;1.10;;;;;;;19.51;53.10;99878.13;5037078;28;20460;-81
2021/07/31 04:11:08;;;;;;;4.32;1.50;;;;;;;19.53;53.06;99883.28;5052638;28;20389;-81
2021/07/31 04:13:33;;;;;;;4.67;1.20;;;;;;;19.53;53.06;99886.03;5046828;28;20400;-81
2021/07/31 04:15:58;;;;;;;6.23;1.00;;;;;;;19.53;53.16;99881.38;5052637;28;20484;-81
2021/07/31 04:18:24;;;;;;;6.57;1.63;;;;;;;19.50;53.21;99886.69;5040642;28;20395;-81
2021/07/31 04:20:50;;;;;;;4.00;1.00;;;;;;;19.41;53.43;99883.91;5039800;28;20470;-81
2021/07/31 04:23:15;;;;;;;5.18;1.20;;;;;;;19.37;53.64;99880.13;5042588;28;20407;-81
2021/07/31 04:25:41;;;;;;;4.70;1.30;;;;;;;19.37;53.78;99884.81;5039267;28;20421;-81
2021/07/31 04:28:06;;;;;;;2.97;1.10;;;;;;;19.35;53.63;99887.09;5053133;28;20390;-81
2021/07/31 04:30:33;;;;;;;2.43;1.23;;;;;;;19.33;53.71;99890.13;5035504;28;20407;-81
2021/07/31 04:32:59;;;;;;;6.10;2.20;;;;;;;19.34;53.90;99891.78;5037104;28;20434;-81
2021/07/31 04:35:24;;;;;;;4.50;1.03;;;;;;;19.35;53.99;99896.16;5051121;28;20377;-81
2021/07/31 04:37:49;;;;;;;5.22;0.95;;;;;;;19.31;53.97;99886.09;5044806;28;20389;-81
2021/07/31 04:40:14;;;;;;;4.27;2.13;;;;;;;19.28;54.22;99892.22;5035177;28;20547;-81
2021/07/31 04:42:40;;;;;;;3.17;1.07;;;;;;;19.15;54.35;99888.44;5051026;28;20425;-81
2021/07/31 04:45:06;;;;;;;3.93;1.23;;;;;;;19.09;54.70;99884.22;5049280;28;20403;-81
2021/07/31 04:47:38;;;;;;;1.70;1.10;;;;;;;19.12;54.81;99887.16;5037263;28;20398;-81
2021/07/31 04:50:08;;;;;;;5.00;1.17;;;;;;;19.23;54.62;99884.13;5049891;28;20743;-81
2021/07/31 04:52:34;;;;;;;3.90;1.10;;;;;;;19.27;54.48;99893.34;5037392;28;20562;-81
2021/07/31 04:55:00;;;;;;;1.50;0.93;;;;;;;19.28;54.42;99887.53;5031970;28;20430;-81
2021/07/31 04:57:25;;;;;;;3.17;1.30;;;;;;;19.30;54.45;99892.72;5032475;28;20425;-81
2021/07/31 04:59:50;;;;;;;6.37;1.07;;;;;;;19.30;54.51;99890.00;5032426;28;20481;-81
2021/07/31 05:02:15;;;;;;;3.53;1.50;;;;;;;19.36;54.41;99891.47;5032904;28;20756;-81
2021/07/31 05:04:41;;;;;;;4.20;1.20;;;;;;;19.32;54.45;99890.47;5038983;28;20485;-81
2021/07/31 05:07:07;;;;;;;5.57;1.10;;;;;;;19.35;54.63;99893.41;5039954;28;20804;-80
2021/07/31 05:09:33;;;;;;;1.48;1.00;;;;;;;19.38;54.57;99891.94;5032676;28;20399;-81
2021/07/31 05:11:58;;;;;;;6.28;2.25;;;;;;;19.36;54.54;99891.47;5031372;28;20430;-82
2021/07/31 05:14:24;;;;;;;2.73;1.47;;;;;;;19.37;54.69;99890.31;5032144;28;20486;-80
2021/07/31 05:16:49;;;;;;;5.30;1.80;;;;;;;19.43;54.64;99891.84;5032448;28;20403;-81
2021/07/31 05:19:15;;;;;;;4.63;1.20;;;;;;;19.48;55.06;99891.69;5032512;28;20395;-80
2021/07/31 05:21:40;;;;;;;5.67;1.37;;;;;;;19.48;54.95;99889.78;5038303;28;20421;-81
2021/07/31 05:24:05;;;;;;;4.45;0.93;;;;;;;19.45;54.62;99901.41;5052139;28;20412;-81
2021/07/31 05:26:31;;;;;;;2.60;1.03;;;;;;;19.47;54.77;99899.13;5045649;28;20533;-81
2021/07/31 05:28:56;;;;;;;2.97;0.97;;;;;;;19.52;54.93;99899.00;5032452;28;20402;-81
2021/07/31 05:31:22;;;;;;;4.73;1.33;;;;;;;19.51;54.89;99891.88;5031501;28;20409;-81
2021/07/31 05:33:48;;;;;;;6.75;0.98;;;;;;;19.50;54.87;99901.25;5032530;28;20402;-81
2021/07/31 05:36:14;;;;;;;6.75;1.45;;;;;;;19.51;54.94;99893.81;5031490;28;20403;-81
2021/07/31 05:38:39;;;;;;;7.85;1.70;;;;;;;19.54;54.94;99901.41;5032442;28;20387;-81
2021/07/31 05:41:04;;;;;;;4.77;1.67;;;;;;;19.53;55.00;99906.09;5030640;28;20440;-81
2021/07/31 05:43:30;;;;;;;5.60;1.60;;;;;;;19.53;54.95;99899.78;5031820;28;20403;-81
2021/07/31 05:45:55;;;;;;;3.92;1.27;;;;;;;19.57;54.52;99903.53;5013828;28;20397;-81
2021/07/31 05:48:20;;;;;;;4.10;1.00;;;;;;;19.62;54.84;99906.16;5032103;28;20387;-80
2021/07/31 05:50:45;;;;;;;5.30;1.00;;;;;;;19.49;54.79;99909.81;5030805;28;20802;-81
2021/07/31 05:53:11;;;;;;;4.80;1.10;;;;;;;19.60;54.66;99905.63;5031074;28;20414;-81
2021/07/31 05:55:37;;;;;;;5.83;1.30;;;;;;;19.59;54.43;99904.81;5031250;28;20407;-80
2021/07/31 05:58:02;;;;;;;5.75;1.65;;;;;;;19.66;54.29;99913.44;5031901;28;20750;-80
2021/07/31 06:00:27;;;;;;;4.27;1.20;;;;;;;19.71;53.91;99911.66;5031975;28;20419;-81
2021/07/31 06:02:53;;;;;;;3.17;1.45;;;;;;;19.76;54.14;99906.81;5031783;28;20419;-81
2021/07/31 06:05:18;;;;;;;4.77;1.70;;;;;;;19.88;54.25;99909.78;5033079;28;20834;-81
2021/07/31 06:07:43;;;;;;;3.63;1.10;;;;;;;19.94;53.95;99905.75;5031309;28;20798;-82
2021/07/31 06:10:09;;;;;;;6.28;1.23;;;;;;;19.95;54.06;99917.56;5030458;28;20411;-81
2021/07/31 06:12:34;;;;;;;3.37;1.07;;;;;;;19.92;53.75;99902.50;5031521;28;20472;-82
2021/07/31 06:15:00;;;;;;;2.77;0.97;;;;;;;19.90;53.17;99901.22;5030908;28;20399;-81
2021/07/31 06:17:25;;;;;;;5.27;1.30;;;;;;;19.93;52.99;99906.88;5030935;28;20414;-80
2021/07/31 06:19:51;;;;;;;3.67;1.10;;;;;;;19.99;53.37;99913.06;5031950;28;21310;-83
2021/07/31 06:22:16;;;;;;;3.57;1.30;;;;;;;20.01;53.57;99906.09;5025499;28;20442;-81
2021/07/31 06:24:41;;;;;;;4.17;1.00;;;;;;;20.05;53.53;99912.59;5033510;28;20457;-80
2021/07/31 06:27:06;;;;;;;4.27;1.00;;;;;;;20.10;52.93;99914.34;5031369;28;20426;-81
2021/07/31 06:29:33;;;;;;;4.70;1.27;;;;;;;20.09;53.26;99909.97;5034784;28;20449;-81
2021/07/31 06:31:58;;;;;;;3.38;1.10;;;;;;;20.09;53.00;99915.47;5029856;28;20445;-82
2021/07/31 06:34:25;;;;;;;4.03;1.23;;;;;;;20.16;52.80;99904.81;5041736;28;20809;-81
2021/07/31 06:36:51;;;;;;;4.85;1.10;;;;;;;20.18;52.47;99906.13;5003839;28;20773;-81
2021/07/31 06:39:16;;;;;;;3.23;1.00;;;;;;;20.20;52.20;99908.56;5032325;28;20477;-80
2021/07/31 06:41:41;;;;;;;3.63;1.20;;;;;;;20.24;51.21;99908.72;5031023;28;20414;-81
2021/07/31 06:44:07;;;;;;;2.17;1.10;;;;;;;20.24;51.91;99914.22;5032947;28;20775;-81
2021/07/31 06:46:32;;;;;;;5.40;1.40;;;;;;;20.23;51.67;99912.59;5041439;28;20480;-80
2021/07/31 06:48:59;;;;;;;7.73;1.20;;;;;;;20.23;51.45;99912.59;5033395;28;20898;-83
2021/07/31 06:51:24;;;;;;;6.40;1.40;;;;;;;20.22;51.48;99913.75;5038053;28;20905;-80
2021/07/31 06:53:50;;;;;;;3.58;0.80;;;;;;;20.28;51.64;99905.03;5050632;28;20406;-79
2021/07/31 06:56:16;;;;;;;2.70;1.20;;;;;;;20.29;51.40;99911.34;5039325;28;20391;-81
2021/07/31 06:58:42;;;;;;;5.00;1.00;;;;;;;20.36;50.55;99912.47;5033236;28;20816;-81
2021/07/31 07:01:11;;;;;;;5.10;1.30;;;;;;;20.46;51.16;99914.91;5012834;28;20433;-81
2021/07/31 07:03:36;;;;;;;2.65;0.88;;;;;;;20.50;50.74;99904.88;5034918;28;20441;-81
2021/07/31 07:06:06;;;;;;;6.10;1.40;;;;;;;20.52;51.12;99902.59;5037978;28;20405;-81
2021/07/31 07:08:32;;;;;;;4.35;1.10;;;;;;;20.56;51.43;99909.09;5030355;28;20407;-81
2021/07/31 07:10:57;;;;;;;3.97;0.90;;;;;;;20.61;51.47;99903.41;5033289;28;20483;-81
2021/07/31 07:13:23;;;;;;;2.73;1.40;;;;;;;20.68;51.88;99903.72;5034245;28;20949;-80
2021/07/31 07:15:49;;;;;;;5.90;1.00;;;;;;;20.71;52.21;99907.81;5033629;28;20766;-80
2021/07/31 07:18:15;;;;;;;5.20;1.10;;;;;;;20.75;51.76;99911.50;5033606;28;20565;-81
2021/07/31 07:20:40;;;;;;;7.67;1.70;;;;;;;20.76;52.46;99920.56;5034844;28;20489;-81
2021/07/31 07:23:06;;;;;;;3.05;1.10;;;;;;;20.76;52.17;99904.88;5030909;28;20413;-81
2021/07/31 07:25:31;;;;;;;3.53;1.03;;;;;;;20.77;51.71;99909.25;5033810;28;20498;-81
2021/07/31 07:27:56;;;;;;;5.83;2.17;;;;;;;20.77;52.02;99914.75;5034053;28;20867;-81
2021/07/31 07:30:22;;;;;;;8.67;1.40;;;;;;;20.83;51.73;99916.22;5010542;28;20424;-83
2021/07/31 07:32:51;;;;;;;3.20;1.00;;;;;;;20.85;52.27;99913.09;5027420;28;21333;-82
2021/07/31 07:35:16;;;;;;;3.95;1.20;;;;;;;20.87;51.67;99911.66;5034164;28;20414;-81
2021/07/31 07:37:42;;;;;;;2.83;1.10;;;;;;;20.90;52.01;99912.97;5034630;28;20403;-82
2021/07/31 07:40:07;;;;;;;2.40;1.00;;;;;;;20.93;51.88;99915.06;5034067;28;20407;-81
2021/07/31 07:42:33;;;;;;;4.80;1.50;;;;;;;20.87;51.48;99910.84;5031244;28;20926;-86
2021/07/31 07:44:58;;;;;;;1.77;1.03;;;;;;;20.93;52.51;99906.78;5031452;28;20427;-79
2021/07/31 07:47:23;;;;;;;9.80;1.70;;;;;;;20.98;53.06;99912.94;5031565;28;20423;-81
2021/07/31 07:49:48;;;;;;;3.77;1.43;;;;;;;20.98;52.78;99915.69;5033068;28;20435;-82
2021/07/31 07:52:14;;;;;;;5.57;2.13;;;;;;;21.01;52.42;99911.50;5034140;28;20481;-81
2021/07/31 07:54:39;;;;;;;3.07;1.30;;;;;;;21.02;52.00;99913.09;5022669;28;20401;-82
2021/07/31 07:57:10;;;;;;;4.23;1.30;;;;;;;21.02;50.38;99905.63;5038287;28;20431;-81
2021/07/31 07:59:36;;;;;;;3.47;1.45;;;;;;;21.06;51.58;99911.31;5034380;28;20394;-80
2021/07/31 08:02:02;;;;;;;4.67;1.07;;;;;;;21.04;51.69;99906.09;5033947;28;20758;-80
2021/07/31 08:04:27;;;;;;;2.80;0.85;;;;;;;21.10;52.21;99906.78;5016104;28;20410;-80
2021/07/31 08:06:53;;;;;;;6.20;1.37;;;;;;;21.19;51.89;99897.38;5033699;28;20403;-81
2021/07/31 08:09:18;;;;;;;2.53;1.03;;;;;;;21.24;52.70;99898.34;5034159;28;20426;-81
2021/07/31 08:11:43;;;;;;;3.50;1.57;;;;;;;21.34;52.32;99907.03;5034408;28;20900;-81
2021/07/31 08:14:10;;;;;;;3.22;1.00;;;;;;;21.39;51.71;99904.13;5032500;28;20562;-81
2021/07/31 08:16:36;;;;;;;3.28;1.20;;;;;;;21.44;50.54;99903.91;5032027;28;20407;-81
2021/07/31 08:19:02;;;;;;;2.75;1.42;;;;;;;21.49;50.41;99908.44;5033860;28;20459;-80
2021/07/31 08:21:29;;;;;;;5.40;1.20;;;;;;;21.53;50.21;99912.16;5033501;28;20971;-80
2021/07/31 08:23:54;;;;;;;3.78;1.20;;;;;;;21.60;49.97;99916.00;5033444;28;20438;-80
2021/07/31 08:26:20;;;;;;;3.60;1.03;;;;;;;21.62;49.11;99912.94;5033698;28;20423;-81
2021/07/31 08:28:45;;;;;;;5.30;1.00;;;;;;;21.68;49.08;99912.41;5034155;28;20395;-81
2021/07/31 08:31:12;;;;;;;2.35;1.13;;;;;;;21.70;48.63;99917.63;5033446;28;20403;-81
2021/07/31 08:33:37;;;;;;;4.15;1.10;;;;;;;21.76;47.57;99912.72;5033447;28;20871;-81
2021/07/31 08:36:04;;;;;;;7.78;1.98;;;;;;;21.82;48.02;99914.94;5033095;28;20410;-80
2021/07/31 08:38:29;;;;;;;3.53;1.07;;;;;;;21.91;48.61;99918.50;5033471;28;20431;-80
2021/07/31 08:40:55;;;;;;;3.93;1.30;;;;;;;22.01;48.55;99915.34;5033193;28;20387;-81
2021/07/31 08:43:21;;;;;;;3.87;1.20;;;;;;;22.17;48.17;99912.81;5033507;28;20407;-81
2021/07/31 08:45:47;;;;;;;4.45;1.25;;;;;;;22.36;46.71;99923.44;5016211;28;20771;-80
2021/07/31 08:48:13;;;;;;;2.60;1.00;;;;;;;22.47;46.90;99917.16;5033027;28;20403;-83
2021/07/31 08:50:40;;;;;;;3.23;1.33;;;;;;;22.56;46.07;99917.88;5031736;28;20413;-82
2021/07/31 08:53:05;;;;;;;3.58;1.35;;;;;;;22.45;46.68;99915.88;5031820;28;20486;-80
2021/07/31 08:55:30;;;;;;;4.43;1.20;;;;;;;22.41;47.17;99926.78;5032567;28;20506;-82
2021/07/31 08:57:56;;;;;;;2.33;0.85;;;;;;;22.46;46.83;99909.22;5033013;28;20395;-82
2021/07/31 09:00:21;;;;;;;3.23;1.20;;;;;;;22.53;46.70;99912.22;5033019;28;20739;-81
2021/07/31 09:02:51;;;;;;;3.13;1.43;;;;;;;22.65;45.59;99912.31;5033586;28;20411;-80
2021/07/31 09:05:31;;;;;;;6.10;1.30;;;;;;;22.82;45.53;99912.16;5015034;28;20387;-81
2021/07/31 09:08:04;;;;;;;3.10;0.90;;;;;;;22.82;46.45;99906.63;5015070;28;20453;-81
2021/07/31 09:10:30;;;;;;;5.10;1.23;;;;;;;22.95;46.62;99907.50;5033161;28;20391;-80
2021/07/31 09:12:58;;;;;;;2.80;1.17;;;;;;;22.96;46.03;99911.88;5032394;28;20441;-81
2021/07/31 09:15:35;;;;;;;3.28;0.90;;;;;;;22.95;45.84;99911.09;5032670;28;20395;-81
2021/07/31 09:18:19;;;;;;;3.72;1.50;;;;;;;23.07;46.42;99907.53;5032708;28;20742;-81
2021/07/31 09:20:52;;;;;;;1.83;1.00;;;;;;;23.19;45.83;99902.03;5033063;28;20395;-80
2021/07/31 09:23:17;;;;;;;6.38;1.60;;;;;;;23.29;44.43;99901.59;5032274;28;20407;-82
2021/07/31 09:25:57;;;;;;;3.58;1.27;;;;;;;23.24;44.21;99904.59;5032389;28;20534;-82
2021/07/31 09:28:23;;;;;;;3.33;1.40;;;;;;;23.40;45.33;99900.03;5032401;28;20430;-82
2021/07/31 09:30:50;;;;;;;1.80;1.10;;;;;;;23.66;44.62;99908.00;5032669;28;20379;-81
2021/07/31 09:33:17;;;;;;;2.42;1.00;;;;;;;23.60;44.23;99904.69;5014911;28;20917;-81
2021/07/31 09:35:48;;;;;;;4.05;1.17;;;;;;;23.48;45.21;99895.56;5032426;28;20395;-81
2021/07/31 09:38:13;;;;;;;4.10;2.25;;;;;;;23.30;44.78;99899.63;5051780;28;20378;-80
2021/07/31 09:40:39;;;;;;;4.87;1.77;;;;;;;23.45;44.92;99896.22;5041018;28;20882;-81
2021/07/31 09:43:16;;;;;;;3.27;1.17;;;;;;;23.54;44.87;99906.06;5032242;28;20464;-81
2021/07/31 09:45:42;;;;;;;3.83;2.25;;;;;;;23.48;43.73;99899.13;5032399;28;20816;-82
2021/07/31 09:48:08;;;;;;;6.22;1.20;;;;;;;23.53;44.30;99906.38;5031906;28;20488;-80
2021/07/31 09:50:47;;;;;;;4.00;1.20;;;;;;;23.50;43.81;99899.59;5032099;28;20395;-81
2021/07/31 09:53:15;;;;;;;6.82;2.00;;;;;;;23.76;43.80;99904.78;5032654;28;20398;-81
2021/07/31 09:55:44;;;;;;;3.20;1.30;;;;;;;24.12;43.09;99907.56;5031909;28;20457;-82
2021/07/31 09:58:13;;;;;;;4.60;1.30;;;;;;;24.55;41.44;99912.44;5031544;28;20525;-80
2021/07/31 10:00:40;;;;;;;2.65;1.10;;;;;;;24.99;41.77;99906.97;5031428;28;20403;-81
2021/07/31 10:03:06;;;;;;;3.65;1.30;;;;;;;25.61;40.50;99906.28;5029405;28;20426;-80
2021/07/31 10:05:33;;;;;;;6.10;1.50;;;;;;;26.44;39.18;99897.56;5030075;28;20801;-82
2021/07/31 10:07:58;;;;;;;4.25;1.30;;;;;;;27.57;36.70;99896.19;5032040;28;20400;-80
2021/07/31 10:10:24;;;;;;;3.58;1.27;;;;;;;29.31;33.33;99886.25;5031864;28;20404;-81
2021/07/31 10:12:49;;;;;;;4.23;0.83;;;;;;;30.15;31.18;99896.53;5031832;28;20478;-79
2021/07/31 10:15:15;;;;;;;2.37;0.90;;;;;;;30.49;30.73;99892.38;5031688;28;20405;-80
2021/07/31 10:17:41;;;;;;;5.63;1.73;;;;;;;30.78;29.50;99898.88;5030544;28;20411;-80
2021/07/31 10:20:07;;;;;;;6.23;1.17;;;;;;;31.47;29.29;99904.25;5031735;28;20430;-81
2021/07/31 10:22:46;;;;;;;3.72;1.45;;;;;;;31.65;28.17;99891.88;5031366;28;20419;-80
2021/07/31 10:25:13;;;;;;;4.95;1.33;;;;;;;30.84;30.59;99898.09;5013649;28;20925;-80
2021/07/31 10:27:39;;;;;;;4.10;1.40;;;;;;;32.55;28.06;99896.97;5031602;28;20410;-81
2021/07/31 10:30:24;;;;;;;2.67;1.40;;;;;;;34.13;25.79;99899.19;5030271;28;20759;-81
2021/07/31 10:32:49;;;;;;;3.67;1.48;;;;;;;35.48;23.74;99901.09;5030191;28;20889;-81
2021/07/31 10:35:29;;;;;;;3.23;1.30;;;;;;;35.17;23.48;99903.22;5031527;28;20391;-81
2021/07/31 10:37:59;;;;;;;2.33;1.25;;;;;;;34.85;23.61;99906.41;5031116;28;20477;-81
2021/07/31 10:40:33;;;;;;;3.70;1.13;;;;;;;34.00;24.71;99898.88;5031158;28;20502;-80
2021/07/31 10:42:58;;;;;;;4.25;1.38;;;;;;;31.67;27.82;99900.72;5031467;28;20445;-80
2021/07/31 10:45:25;;;;;;;4.85;1.83;;;;;;;30.39;29.54;99904.28;5031929;28;20395;-80
2021/07/31 10:47:55;;;;;;;1.25;0.80;;;;;;;32.01;27.71;99897.50;5031635;28;20751;-81
2021/07/31 10:50:23;;;;;;;3.10;0.90;;;;;;;33.27;26.54;99898.25;5031197;28;20414;-81
2021/07/31 10:52:56;;;;;;;2.83;1.02;;;;;;;32.86;25.94;99898.88;5031277;28;20427;-81
2021/07/31 10:55:25;;;;;;;4.72;1.50;;;;;;;31.08;28.18;99899.41;5031359;28;20391;-81
2021/07/31 10:57:53;;;;;;;8.80;1.40;;;;;;;29.05;31.70;99900.28;5030924;28;20472;-80
2021/07/31 11:00:50;;;;;;;4.28;1.13;;;;;;;27.56;34.25;99905.72;5031096;28;20390;-80
2021/07/31 11:03:18;;;;;;;4.22;1.40;;;;;;;26.90;36.09;99897.72;5050590;28;20424;-81
2021/07/31 11:05:49;;;;;;;5.68;1.40;;;;;;;27.15;35.41;99904.56;5051158;28;20393;-80
2021/07/31 11:08:19;;;;;;;3.90;1.20;;;;;;;28.46;33.81;99901.94;5035777;28;20391;-80
2021/07/31 11:10:54;;;;;;;2.92;1.00;;;;;;;27.79;34.97;99898.16;5030805;28;20425;-81
2021/07/31 11:13:19;;;;;;;3.80;1.42;;;;;;;26.98;36.27;99897.47;5031114;28;20410;-80
2021/07/31 11:15:59;;;;;;;3.58;1.08;;;;;;;28.21;34.91;99898.84;5031208;28;20426;-81
2021/07/31 11:18:39;;;;;;;3.92;1.38;;;;;;;30.20;30.72;99899.75;5031439;28;20518;-81
2021/07/31 11:21:20;;;;;;;2.50;1.10;;;;;;;30.55;30.08;99892.78;5029733;28;20403;-81
2021/07/31 11:23:53;;;;;;;1.65;1.00;;;;;;;29.49;30.24;99895.59;5030746;28;20430;-81
2021/07/31 11:26:50;;;;;;;5.00;1.50;;;;;;;28.02;33.92;99885.00;5042589;28;20747;-80
2021/07/31 11:29:27;;;;;;;3.55;1.33;;;;;;;27.06;36.74;99893.69;5013052;28;20389;-80
2021/07/31 11:32:14;;;;;;;1.92;1.20;;;;;;;28.32;34.91;99891.41;5014832;28;20745;-80